createdAt,value
2022-11-03T00:00:12.861Z,88.40
2022-11-03T00:00:44.619Z,88.09
2022-11-03T00:01:16.206Z,88.41
2022-11-03T00:01:49.207Z,88.43
2022-11-03T00:02:21.051Z,88.96
2022-11-03T00:02:52.657Z,88.41
2022-11-03T00:03:24.232Z,89.10
2022-11-03T00:03:55.706Z,89.35
2022-11-03T00:04:27.364Z,89.21
2022-11-03T00:05:19.017Z,89.31
2022-11-03T00:06:05.885Z,89.31
2022-11-03T00:06:38.058Z,89.20
2022-11-03T00:07:10.009Z,90.08
2022-11-03T00:07:41.505Z,89.83
2022-11-03T00:10:02.968Z,89.57
2022-11-03T00:10:34.533Z,89.50
2022-11-03T00:13:37.514Z,89.98
2022-11-03T00:14:10.925Z,89.54
2022-11-03T00:14:42.541Z,90.21
2022-11-03T00:15:14.104Z,89.74
2022-11-03T00:15:49.477Z,89.75
2022-11-03T00:16:21.108Z,89.59
2022-11-03T00:16:52.960Z,90.44
2022-11-03T00:17:24.525Z,89.86
2022-11-03T00:17:56.045Z,89.86
2022-11-03T00:18:27.716Z,90.05
2022-11-03T00:18:59.300Z,90.74
2022-11-03T00:19:30.881Z,90.40
2022-11-03T00:20:02.838Z,90.59
2022-11-03T00:20:34.385Z,90.97
2022-11-03T00:21:08.686Z,90.33
2022-11-03T00:21:40.229Z,90.35
2022-11-03T00:22:11.842Z,90.45
2022-11-03T00:22:43.361Z,90.85
2022-11-03T00:23:14.905Z,90.80
2022-11-03T00:23:47.010Z,90.22
2022-11-03T00:24:18.522Z,91.08
2022-11-03T00:24:50.008Z,90.47
2022-11-03T00:25:21.559Z,90.82
2022-11-03T00:25:53.092Z,90.60
2022-11-03T00:26:26.391Z,91.05
2022-11-03T00:26:57.950Z,91.23
2022-11-03T00:27:29.485Z,91.15
2022-11-03T00:28:33.888Z,91.54
2022-11-03T00:29:10.485Z,91.54
2022-11-03T00:29:41.992Z,91.54
2022-11-03T00:30:13.833Z,91.01
2022-11-03T00:30:45.469Z,90.72
2022-11-03T00:31:22.161Z,90.95
2022-11-03T00:31:53.676Z,90.64
2022-11-03T00:32:25.189Z,90.34
2022-11-03T00:32:58.461Z,90.61
2022-11-03T00:33:33.080Z,91.03
2022-11-03T00:34:05.467Z,90.64
2022-11-03T00:34:36.979Z,90.86
2022-11-03T00:35:08.639Z,90.71
2022-11-03T00:35:40.150Z,90.78
2022-11-03T00:36:25.978Z,91.15
2022-11-03T00:36:57.464Z,90.84
2022-11-03T00:37:29.078Z,91.61
2022-11-03T00:38:00.559Z,90.88
2022-11-03T00:38:32.628Z,91.25
2022-11-03T00:39:05.301Z,91.95
2022-11-03T00:39:36.925Z,91.63
2022-11-03T00:40:11.102Z,91.62
2022-11-03T00:40:42.605Z,91.83
2022-11-03T00:41:14.600Z,91.63
2022-11-03T00:41:46.238Z,92.53
2022-11-03T00:42:17.846Z,92.47
2022-11-03T00:42:49.421Z,92.32
2022-11-03T00:43:23.062Z,92.25
2022-11-03T00:43:55.012Z,92.40
2022-11-03T00:44:27.410Z,91.77
2022-11-03T00:44:58.947Z,92.14
2022-11-03T00:45:30.588Z,92.22
2022-11-03T00:46:02.903Z,91.42
2022-11-03T00:46:35.547Z,91.72
2022-11-03T00:47:07.686Z,91.48
2022-11-03T00:47:59.262Z,91.06
2022-11-03T00:48:32.376Z,91.23
2022-11-03T00:49:05.169Z,91.33
2022-11-03T00:49:36.742Z,91.32
2022-11-03T00:50:08.647Z,91.22
2022-11-03T00:50:40.147Z,91.24
2022-11-03T00:51:11.675Z,90.82
2022-11-03T00:51:43.189Z,91.07
2022-11-03T00:52:14.702Z,90.76
2022-11-03T00:52:46.292Z,90.96
2022-11-03T00:53:17.794Z,90.50
2022-11-03T00:53:54.599Z,90.42
2022-11-03T00:54:26.108Z,90.89
2022-11-03T00:54:57.668Z,91.06
2022-11-03T00:55:29.189Z,90.53
2022-11-03T00:56:01.143Z,90.68
2022-11-03T00:56:42.430Z,90.92
2022-11-03T00:57:13.948Z,91.19
2022-11-03T00:57:45.540Z,91.05
2022-11-03T00:58:17.131Z,90.67
2022-11-03T00:58:49.791Z,90.87
2022-11-03T00:59:21.304Z,90.52
2022-11-03T00:59:52.804Z,91.20
2022-11-03T01:00:24.316Z,90.95
2022-11-03T01:01:03.070Z,90.82
2022-11-03T01:01:46.519Z,91.19
2022-11-03T01:02:18.790Z,91.09
2022-11-03T01:02:50.501Z,90.90
2022-11-03T01:03:22.144Z,91.44
2022-11-03T01:04:14.265Z,91.92
2022-11-03T01:05:04.632Z,90.94
2022-11-03T01:05:59.593Z,91.66
2022-11-03T01:06:50.649Z,91.15
2022-11-03T01:07:22.478Z,92.10
2022-11-03T01:07:54.135Z,91.41
2022-11-03T01:08:27.714Z,91.49
2022-11-03T01:08:59.495Z,92.28
2022-11-03T01:09:35.646Z,92.17
2022-11-03T01:10:09.012Z,91.88
2022-11-03T01:11:00.623Z,92.46
2022-11-03T01:11:44.097Z,91.87
2022-11-03T01:12:18.227Z,92.26
2022-11-03T01:12:49.752Z,92.25
2022-11-03T01:13:21.354Z,91.78
2022-11-03T01:13:52.963Z,91.94
2022-11-03T01:14:29.699Z,91.75
2022-11-03T01:15:01.209Z,91.70
2022-11-03T01:15:33.102Z,91.61
2022-11-03T01:16:04.986Z,91.99
2022-11-03T01:16:36.538Z,91.70
2022-11-03T01:17:13.942Z,91.57
2022-11-03T01:17:45.483Z,91.35
2022-11-03T01:18:17.091Z,91.63
2022-11-03T01:18:48.715Z,91.52
2022-11-03T01:19:20.456Z,91.68
2022-11-03T01:19:52.426Z,92.30
2022-11-03T01:20:23.951Z,92.69
2022-11-03T01:20:56.683Z,92.33
2022-11-03T01:21:28.379Z,92.68
2022-11-03T01:22:00.223Z,92.51
2022-11-03T01:22:31.771Z,92.61
2022-11-03T01:23:03.624Z,92.81
2022-11-03T01:23:36.060Z,92.30
2022-11-03T01:24:07.595Z,92.26
2022-11-03T01:24:43.005Z,92.89
2022-11-03T01:25:14.530Z,92.61
2022-11-03T01:25:46.067Z,92.57
2022-11-03T01:26:18.116Z,92.25
2022-11-03T01:26:50.120Z,92.61
2022-11-03T01:27:24.342Z,92.30
2022-11-03T01:27:55.924Z,92.69
2022-11-03T01:28:27.460Z,92.89
2022-11-03T01:29:00.339Z,92.78
2022-11-03T01:29:31.868Z,92.60
2022-11-03T01:30:03.814Z,92.90
2022-11-03T01:30:35.511Z,93.02
2022-11-03T01:31:16.157Z,92.57
2022-11-03T01:31:47.739Z,92.72
2022-11-03T01:32:19.312Z,92.25
2022-11-03T01:32:50.935Z,92.64
2022-11-03T01:33:22.437Z,92.41
2022-11-03T01:33:55.997Z,92.25
2022-11-03T01:34:27.559Z,92.38
2022-11-03T01:34:59.212Z,92.24
2022-11-03T01:35:30.765Z,92.57
2022-11-03T01:36:02.342Z,92.64
2022-11-03T01:36:33.897Z,91.96
2022-11-03T01:37:05.945Z,92.82
2022-11-03T01:37:37.489Z,91.85
2022-11-03T01:38:09.053Z,92.26
2022-11-03T01:38:40.996Z,92.39
2022-11-03T01:39:14.158Z,92.16
2022-11-03T01:39:45.670Z,92.44
2022-11-03T01:40:17.339Z,92.26
2022-11-03T01:40:49.065Z,92.39
2022-11-03T01:41:23.653Z,91.75
2022-11-03T01:41:55.209Z,92.22
2022-11-03T01:42:26.733Z,91.53
2022-11-03T01:43:18.233Z,91.69
2022-11-03T01:44:08.023Z,91.38
2022-11-03T01:44:46.944Z,91.46
2022-11-03T01:45:18.532Z,92.06
2022-11-03T01:46:24.485Z,91.28
2022-11-03T01:47:03.688Z,90.92
2022-11-03T01:47:36.034Z,91.22
2022-11-03T01:48:08.945Z,91.49
2022-11-03T01:48:44.805Z,91.32
2022-11-03T01:49:25.040Z,91.46
2022-11-03T01:50:06.315Z,91.45
2022-11-03T01:50:38.021Z,91.72
2022-11-03T01:51:11.335Z,90.95
2022-11-03T01:51:43.776Z,91.13
2022-11-03T01:52:34.080Z,90.90
2022-11-03T01:53:06.709Z,90.85
2022-11-03T01:53:41.594Z,91.17
2022-11-03T01:54:16.377Z,91.23
2022-11-03T01:54:51.706Z,91.39
2022-11-03T01:55:27.910Z,91.45
2022-11-03T01:55:59.590Z,91.56
2022-11-03T01:56:32.927Z,91.33
2022-11-03T01:57:08.935Z,91.51
2022-11-03T01:57:45.435Z,91.23
2022-11-03T01:58:20.138Z,91.89
2022-11-03T01:58:54.243Z,92.15
2022-11-03T01:59:26.175Z,91.98
2022-11-03T01:59:58.430Z,92.21
2022-11-03T02:00:30.684Z,91.71
2022-11-03T02:01:02.530Z,91.82
2022-11-03T02:01:34.456Z,91.70
2022-11-03T02:02:06.463Z,91.68
2022-11-03T02:02:38.241Z,91.73
2022-11-03T02:03:10.553Z,91.81
2022-11-03T02:03:46.940Z,91.58
2022-11-03T02:04:21.911Z,92.06
2022-11-03T02:04:54.397Z,92.10
2022-11-03T02:05:26.846Z,92.04
2022-11-03T02:05:58.852Z,92.19
2022-11-03T02:06:31.223Z,92.04
2022-11-03T02:07:08.688Z,92.10
2022-11-03T02:07:52.239Z,92.02
2022-11-03T02:08:47.259Z,91.73
2022-11-03T02:09:19.640Z,91.99
2022-11-03T02:09:51.168Z,92.20
2022-11-03T02:10:24.371Z,92.07
2022-11-03T02:10:56.901Z,92.30
2022-11-03T02:11:47.111Z,92.25
2022-11-03T02:12:20.227Z,92.42
2022-11-03T02:12:52.069Z,92.34
2022-11-03T02:13:27.580Z,92.17
2022-11-03T02:13:59.152Z,92.12
2022-11-03T02:14:30.655Z,91.90
2022-11-03T02:15:06.057Z,92.48
2022-11-03T02:15:38.218Z,92.16
2022-11-03T02:16:09.766Z,92.39
2022-11-03T02:16:46.390Z,92.13
2022-11-03T02:17:20.875Z,92.41
2022-11-03T02:17:54.494Z,92.22
2022-11-03T02:18:28.851Z,91.71
2022-11-03T02:19:02.021Z,91.94
2022-11-03T02:19:41.558Z,91.59
2022-11-03T02:20:19.359Z,91.53
2022-11-03T02:21:02.508Z,91.47
2022-11-03T02:21:41.339Z,91.69
2022-11-03T02:22:36.714Z,91.36
2022-11-03T02:23:47.668Z,91.70
2022-11-03T02:24:26.355Z,91.35
2022-11-03T02:25:28.721Z,91.09
2022-11-03T02:26:00.979Z,91.16
2022-11-03T02:26:32.499Z,91.47
2022-11-03T02:27:04.294Z,90.96
2022-11-03T02:27:35.868Z,91.27
2022-11-03T02:28:07.892Z,91.02
2022-11-03T02:28:39.454Z,90.68
2022-11-03T02:29:10.994Z,91.04
2022-11-03T02:29:42.598Z,91.38
2022-11-03T02:30:14.270Z,91.08
2022-11-03T02:31:14.425Z,91.46
2022-11-03T02:31:58.545Z,91.39
2022-11-03T02:32:35.269Z,91.54
2022-11-03T02:33:25.022Z,91.19
2022-11-03T02:33:56.581Z,91.60
2022-11-03T02:34:32.789Z,91.83
2022-11-03T02:35:29.450Z,91.25
2022-11-03T02:36:07.391Z,91.48
2022-11-03T02:36:44.974Z,91.60
2022-11-03T02:37:22.016Z,91.69
2022-11-03T02:37:55.930Z,91.38
2022-11-03T02:38:28.486Z,91.18
2022-11-03T02:39:16.473Z,91.49
2022-11-03T02:39:52.601Z,91.91
2022-11-03T02:40:30.664Z,92.08
2022-11-03T02:41:05.637Z,91.99
2022-11-03T02:41:38.197Z,91.78
2022-11-03T02:42:11.020Z,92.05
2022-11-03T02:42:46.066Z,92.00
2022-11-03T02:43:18.573Z,92.00
2022-11-03T02:43:50.573Z,91.82
2022-11-03T02:44:22.553Z,92.35
2022-11-03T02:44:55.278Z,92.24
2022-11-03T02:45:28.264Z,92.14
2022-11-03T02:46:00.809Z,92.61
2022-11-03T02:46:33.363Z,92.45
2022-11-03T02:47:08.501Z,92.49
2022-11-03T02:47:40.495Z,92.67
2022-11-03T02:48:15.278Z,92.83
2022-11-03T02:48:47.896Z,92.43
2022-11-03T02:49:19.487Z,93.06
2022-11-03T02:50:33.450Z,92.79
2022-11-03T02:51:05.227Z,93.16
2022-11-03T02:51:36.789Z,92.43
2022-11-03T02:52:44.304Z,92.87
2022-11-03T02:53:16.589Z,92.26
2022-11-03T02:54:08.040Z,92.28
2022-11-03T02:54:42.521Z,92.16
2022-11-03T02:55:31.868Z,91.85
2022-11-03T02:56:07.325Z,92.24
2022-11-03T02:56:47.539Z,92.19
2022-11-03T02:57:22.060Z,92.43
2022-11-03T02:57:59.682Z,92.35
2022-11-03T02:58:35.640Z,92.25
2022-11-03T02:59:10.637Z,92.67
2022-11-03T02:59:54.443Z,92.60
2022-11-03T03:00:26.719Z,92.58
2022-11-03T03:01:01.193Z,92.19
2022-11-03T03:01:37.493Z,92.55
2022-11-03T03:02:11.322Z,92.51
2022-11-03T03:02:57.342Z,92.87
2022-11-03T03:03:32.381Z,92.74
2022-11-03T03:04:06.952Z,92.67
2022-11-03T03:04:44.725Z,92.65
2022-11-03T03:05:17.651Z,92.37
2022-11-03T03:05:50.430Z,92.69
2022-11-03T03:06:42.975Z,92.53
2022-11-03T03:07:17.490Z,92.66
2022-11-03T03:07:51.055Z,91.69
2022-11-03T03:08:23.322Z,92.01
2022-11-03T03:09:02.440Z,92.04
2022-11-03T03:09:59.105Z,92.16
2022-11-03T03:10:34.046Z,92.20
2022-11-03T03:11:06.273Z,92.03
2022-11-03T03:11:41.513Z,92.12
2022-11-03T03:12:16.444Z,92.49
2022-11-03T03:12:50.985Z,92.35
2022-11-03T03:13:24.071Z,92.78
2022-11-03T03:13:55.593Z,92.65
2022-11-03T03:14:34.233Z,92.34
2022-11-03T03:15:06.915Z,92.41
2022-11-03T03:15:48.100Z,92.78
2022-11-03T03:16:26.731Z,92.28
2022-11-03T03:16:58.238Z,92.68
2022-11-03T03:17:32.678Z,92.69
2022-11-03T03:18:21.795Z,92.51
2022-11-03T03:19:12.095Z,92.57
2022-11-03T03:20:21.064Z,92.64
2022-11-03T03:21:17.821Z,92.91
2022-11-03T03:21:53.589Z,93.28
2022-11-03T03:22:34.769Z,93.08
2022-11-03T03:23:24.173Z,93.18
2022-11-03T03:24:02.787Z,93.49
2022-11-03T03:24:40.089Z,92.97
2022-11-03T03:25:20.615Z,92.73
2022-11-03T03:26:11.192Z,92.63
2022-11-03T03:26:45.162Z,92.96
2022-11-03T03:27:18.002Z,92.69
2022-11-03T03:27:52.041Z,92.86
2022-11-03T03:28:32.345Z,92.68
2022-11-03T03:29:07.774Z,92.96
2022-11-03T03:30:00.271Z,92.95
2022-11-03T03:30:32.915Z,93.15
2022-11-03T03:31:07.526Z,92.98
2022-11-03T03:31:42.297Z,93.13
2022-11-03T03:32:18.624Z,93.21
2022-11-03T03:32:51.168Z,92.77
2022-11-03T03:33:22.983Z,92.88
2022-11-03T03:34:04.522Z,92.64
2022-11-03T03:34:47.914Z,92.80
2022-11-03T03:35:23.800Z,92.29
2022-11-03T03:35:55.811Z,92.37
2022-11-03T03:36:29.065Z,92.29
2022-11-03T03:37:01.224Z,92.09
2022-11-03T03:37:38.871Z,92.11
2022-11-03T03:38:15.050Z,92.16
2022-11-03T03:38:54.646Z,92.19
2022-11-03T03:39:28.947Z,92.17
2022-11-03T03:40:04.195Z,91.88
2022-11-03T03:40:37.951Z,92.50
2022-11-03T03:41:11.017Z,92.08
2022-11-03T03:41:43.227Z,92.08
2022-11-03T03:42:15.279Z,91.56
2022-11-03T03:42:47.570Z,91.99
2022-11-03T03:43:20.326Z,91.53
2022-11-03T03:43:57.805Z,91.85
2022-11-03T03:44:30.653Z,91.57
2022-11-03T03:45:03.068Z,91.36
2022-11-03T03:45:35.782Z,91.55
2022-11-03T03:46:10.298Z,91.59
2022-11-03T03:46:46.169Z,91.14
2022-11-03T03:47:31.964Z,91.45
2022-11-03T03:48:04.369Z,91.18
2022-11-03T03:48:35.966Z,91.06
2022-11-03T03:49:07.828Z,91.38
2022-11-03T03:49:39.631Z,91.26
2022-11-03T03:50:11.396Z,91.28
2022-11-03T03:50:44.134Z,91.61
2022-11-03T03:51:17.549Z,91.45
2022-11-03T03:51:49.985Z,91.61
2022-11-03T03:52:21.928Z,91.45
2022-11-03T03:53:08.141Z,91.69
2022-11-03T03:53:39.751Z,91.45
2022-11-03T03:54:11.283Z,91.40
2022-11-03T03:54:42.957Z,91.38
2022-11-03T03:55:18.370Z,91.50
2022-11-03T03:55:51.532Z,91.92
2022-11-03T03:56:30.363Z,91.75
2022-11-03T03:57:03.549Z,91.35
2022-11-03T03:57:35.129Z,91.78
2022-11-03T03:58:07.973Z,91.89
2022-11-03T03:58:39.809Z,91.52
2022-11-03T03:59:11.447Z,91.71
2022-11-03T03:59:43.951Z,91.11
2022-11-03T04:00:16.147Z,91.39
2022-11-03T04:00:47.743Z,91.06
2022-11-03T04:01:19.462Z,90.77
2022-11-03T04:01:51.161Z,91.33
2022-11-03T04:02:22.881Z,91.27
2022-11-03T04:02:57.569Z,91.46
2022-11-03T04:03:29.743Z,91.36
2022-11-03T04:04:01.362Z,91.19
2022-11-03T04:04:32.884Z,91.48
2022-11-03T04:05:04.878Z,91.33
2022-11-03T04:05:36.390Z,91.26
2022-11-03T04:06:08.738Z,91.66
2022-11-03T04:06:40.283Z,91.26
2022-11-03T04:07:30.732Z,91.71
2022-11-03T04:08:02.239Z,91.41
2022-11-03T04:08:33.930Z,91.56
2022-11-03T04:09:05.588Z,91.85
2022-11-03T04:09:37.137Z,92.02
2022-11-03T04:10:09.083Z,91.75
2022-11-03T04:10:40.632Z,92.01
2022-11-03T04:11:31.017Z,91.90
2022-11-03T04:12:21.169Z,92.01
2022-11-03T04:13:11.427Z,91.81
2022-11-03T04:14:01.534Z,91.61
2022-11-03T04:14:51.524Z,92.04
2022-11-03T04:16:01.844Z,92.03
2022-11-03T04:16:51.923Z,92.26
2022-11-03T04:17:42.077Z,91.87
2022-11-03T04:18:32.052Z,91.93
2022-11-03T04:19:22.135Z,92.60
2022-11-03T04:20:12.287Z,92.50
2022-11-03T04:21:02.429Z,92.18
2022-11-03T04:21:52.552Z,92.61
2022-11-03T04:22:26.659Z,92.45
2022-11-03T04:22:58.232Z,92.43
2022-11-03T04:23:29.751Z,92.28
2022-11-03T04:24:01.353Z,92.54
2022-11-03T04:24:32.892Z,92.37
2022-11-03T04:25:04.722Z,92.81
2022-11-03T04:25:36.222Z,92.35
2022-11-03T04:26:13.011Z,92.52
2022-11-03T04:26:44.583Z,92.88
2022-11-03T04:27:29.517Z,92.98
2022-11-03T04:28:01.178Z,92.78
2022-11-03T04:28:32.747Z,92.52
2022-11-03T04:29:06.937Z,92.53
2022-11-03T04:29:38.443Z,92.41
2022-11-03T04:30:15.337Z,93.02
2022-11-03T04:30:46.889Z,92.08
2022-11-03T04:31:19.663Z,92.94
2022-11-03T04:31:51.169Z,92.85
2022-11-03T04:32:22.705Z,92.79
2022-11-03T04:32:54.763Z,93.04
2022-11-03T04:33:27.023Z,92.80
2022-11-03T04:33:59.003Z,92.36
2022-11-03T04:34:30.671Z,92.84
2022-11-03T04:35:07.239Z,92.23
2022-11-03T04:35:38.769Z,92.20
2022-11-03T04:36:11.243Z,92.80
2022-11-03T04:36:42.786Z,92.71
2022-11-03T04:37:15.650Z,92.87
2022-11-03T04:37:52.101Z,92.36
2022-11-03T04:38:24.447Z,92.32
2022-11-03T04:38:56.565Z,92.57
2022-11-03T04:39:28.617Z,92.24
2022-11-03T04:40:01.347Z,92.85
2022-11-03T04:40:33.489Z,92.41
2022-11-03T04:41:14.989Z,92.21
2022-11-03T04:41:46.592Z,92.33
2022-11-03T04:42:22.120Z,91.86
2022-11-03T04:42:54.027Z,92.21
2022-11-03T04:43:34.015Z,91.82
2022-11-03T04:44:12.333Z,91.82
2022-11-03T04:44:44.692Z,91.62
2022-11-03T04:45:34.057Z,91.64
2022-11-03T04:46:05.984Z,91.86
2022-11-03T04:46:37.505Z,91.82
2022-11-03T04:47:11.983Z,91.27
2022-11-03T04:47:43.777Z,91.09
2022-11-03T04:48:19.070Z,91.39
2022-11-03T04:48:50.706Z,91.46
2022-11-03T04:49:23.195Z,91.63
2022-11-03T04:49:54.991Z,91.79
2022-11-03T04:50:26.888Z,91.66
2022-11-03T04:51:00.731Z,91.78
2022-11-03T04:51:34.960Z,91.67
2022-11-03T04:52:13.197Z,91.53
2022-11-03T04:52:44.716Z,91.16
2022-11-03T04:53:18.105Z,91.61
2022-11-03T04:54:00.603Z,91.52
2022-11-03T04:54:32.222Z,91.78
2022-11-03T04:55:06.700Z,91.77
2022-11-03T04:55:40.525Z,91.53
2022-11-03T04:56:16.577Z,91.32
2022-11-03T04:56:48.231Z,91.62
2022-11-03T04:57:20.063Z,91.94
2022-11-03T04:57:57.294Z,91.81
2022-11-03T04:58:32.866Z,91.61
2022-11-03T04:59:11.308Z,91.19
2022-11-03T04:59:47.844Z,90.92
2022-11-03T05:00:19.817Z,91.28
2022-11-03T05:00:59.781Z,90.71
2022-11-03T05:01:31.985Z,90.83
2022-11-03T05:02:04.149Z,90.77
2022-11-03T05:02:35.865Z,90.91
2022-11-03T05:03:13.796Z,90.62
2022-11-03T05:03:46.877Z,90.61
2022-11-03T05:04:19.095Z,90.81
2022-11-03T05:04:50.827Z,90.64
2022-11-03T05:05:24.575Z,91.18
2022-11-03T05:05:56.796Z,90.82
2022-11-03T05:06:29.127Z,90.95
2022-11-03T05:07:00.691Z,90.37
2022-11-03T05:07:35.929Z,90.68
2022-11-03T05:08:08.970Z,90.77
2022-11-03T05:08:41.290Z,90.90
2022-11-03T05:09:16.975Z,90.88
2022-11-03T05:09:48.899Z,90.87
2022-11-03T05:10:27.895Z,90.39
2022-11-03T05:10:59.751Z,91.18
2022-11-03T05:11:45.553Z,90.85
2022-11-03T05:12:18.048Z,90.93
2022-11-03T05:12:49.791Z,90.98
2022-11-03T05:13:26.957Z,91.00
2022-11-03T05:14:01.937Z,91.45
2022-11-03T05:14:33.651Z,91.40
2022-11-03T05:15:14.766Z,91.56
2022-11-03T05:15:48.043Z,92.04
2022-11-03T05:16:19.647Z,91.88
2022-11-03T05:16:55.212Z,91.31
2022-11-03T05:17:28.332Z,91.41
2022-11-03T05:18:01.590Z,91.34
2022-11-03T05:18:36.954Z,91.12
2022-11-03T05:19:15.593Z,91.67
2022-11-03T05:19:47.331Z,91.17
2022-11-03T05:21:01.331Z,91.72
2022-11-03T05:21:32.834Z,91.69
2022-11-03T05:22:05.120Z,91.89
2022-11-03T05:22:37.609Z,91.67
2022-11-03T05:23:11.307Z,92.15
2022-11-03T05:23:48.774Z,92.19
2022-11-03T05:24:21.840Z,91.94
2022-11-03T05:24:57.482Z,91.78
2022-11-03T05:25:38.256Z,91.83
2022-11-03T05:26:15.337Z,91.51
2022-11-03T05:26:47.086Z,91.94
2022-11-03T05:27:21.015Z,92.22
2022-11-03T05:27:52.500Z,91.59
2022-11-03T05:28:37.836Z,92.10
2022-11-03T05:29:14.841Z,91.80
2022-11-03T05:29:47.419Z,91.92
2022-11-03T05:30:18.955Z,91.95
2022-11-03T05:30:51.075Z,92.17
2022-11-03T05:31:30.316Z,92.22
2022-11-03T05:32:01.864Z,92.19
2022-11-03T05:32:33.926Z,92.37
2022-11-03T05:33:17.519Z,92.73
2022-11-03T05:33:49.947Z,92.64
2022-11-03T05:34:25.908Z,92.06
2022-11-03T05:34:57.807Z,92.26
2022-11-03T05:35:29.303Z,92.74
2022-11-03T05:36:03.593Z,92.47
2022-11-03T05:36:35.176Z,92.85
2022-11-03T05:37:06.638Z,92.33
2022-11-03T05:37:38.148Z,92.69
2022-11-03T05:38:13.008Z,92.33
2022-11-03T05:38:44.504Z,92.75
2022-11-03T05:39:31.333Z,93.23
2022-11-03T05:40:23.240Z,92.95
2022-11-03T05:40:55.065Z,92.83
2022-11-03T05:41:29.634Z,92.98
2022-11-03T05:42:01.445Z,92.77
2022-11-03T05:42:35.898Z,93.21
2022-11-03T05:43:13.851Z,92.68
2022-11-03T05:43:46.613Z,92.97
2022-11-03T05:44:33.859Z,92.79
2022-11-03T05:45:23.537Z,92.93
2022-11-03T05:45:59.214Z,92.91
2022-11-03T05:46:32.207Z,93.14
2022-11-03T05:47:17.242Z,93.36
2022-11-03T05:47:49.335Z,93.38
2022-11-03T05:48:47.320Z,93.27
2022-11-03T05:49:18.936Z,93.61
2022-11-03T05:49:54.037Z,93.41
2022-11-03T05:50:27.616Z,93.49
2022-11-03T05:51:16.025Z,93.30
2022-11-03T05:51:47.662Z,93.77
2022-11-03T05:52:26.845Z,93.84
2022-11-03T05:53:04.262Z,94.02
2022-11-03T05:53:38.797Z,94.22
2022-11-03T05:54:19.907Z,93.69
2022-11-03T05:54:52.715Z,94.22
2022-11-03T05:55:31.070Z,93.62
2022-11-03T05:56:04.591Z,94.06
2022-11-03T05:56:36.195Z,94.13
2022-11-03T05:57:18.298Z,93.83
2022-11-03T05:57:50.278Z,93.84
2022-11-03T05:58:29.668Z,93.66
2022-11-03T05:59:02.177Z,93.45
2022-11-03T05:59:33.717Z,93.98
2022-11-03T06:00:08.158Z,94.03
2022-11-03T06:00:48.290Z,94.05
2022-11-03T06:01:29.903Z,94.17
2022-11-03T06:02:01.778Z,93.84
2022-11-03T06:02:41.948Z,94.19
2022-11-03T06:03:28.471Z,94.44
2022-11-03T06:04:01.447Z,94.23
2022-11-03T06:04:37.351Z,94.19
2022-11-03T06:05:18.782Z,94.19
2022-11-03T06:05:50.669Z,94.44
2022-11-03T06:06:32.179Z,94.59
2022-11-03T06:07:09.823Z,94.84
2022-11-03T06:07:41.376Z,94.72
2022-11-03T06:09:13.924Z,94.76
2022-11-03T06:09:45.794Z,94.82
2022-11-03T06:10:36.367Z,94.79
2022-11-03T06:11:10.376Z,94.86
2022-11-03T06:11:42.563Z,94.75
2022-11-03T06:12:18.188Z,94.67
2022-11-03T06:12:49.781Z,95.05
2022-11-03T06:13:30.303Z,94.88
2022-11-03T06:14:02.591Z,94.76
2022-11-03T06:14:36.273Z,94.62
2022-11-03T06:15:22.716Z,94.49
2022-11-03T06:16:00.252Z,94.57
2022-11-03T06:16:42.486Z,94.36
2022-11-03T06:17:25.483Z,94.38
2022-11-03T06:17:57.535Z,94.03
2022-11-03T06:18:35.738Z,94.07
2022-11-03T06:19:20.606Z,94.05
2022-11-03T06:19:54.414Z,94.03
2022-11-03T06:20:26.478Z,94.27
2022-11-03T06:21:00.026Z,93.89
2022-11-03T06:21:31.562Z,94.31
2022-11-03T06:22:11.646Z,94.58
2022-11-03T06:22:45.603Z,94.46
2022-11-03T06:23:18.555Z,94.97
2022-11-03T06:23:51.173Z,94.40
2022-11-03T06:24:26.864Z,94.60
2022-11-03T06:25:11.297Z,95.01
2022-11-03T06:25:43.469Z,95.05
2022-11-03T06:26:19.394Z,94.97
2022-11-03T06:26:52.367Z,95.00
2022-11-03T06:27:24.494Z,95.26
2022-11-03T06:28:01.122Z,95.33
2022-11-03T06:28:36.997Z,95.15
2022-11-03T06:29:13.362Z,95.48
2022-11-03T06:29:50.531Z,94.76
2022-11-03T06:30:27.085Z,94.62
2022-11-03T06:30:58.699Z,95.13
2022-11-03T06:31:32.229Z,94.91
2022-11-03T06:32:03.848Z,94.69
2022-11-03T06:32:35.420Z,95.28
2022-11-03T06:33:36.559Z,95.37
2022-11-03T06:34:26.758Z,95.34
2022-11-03T06:34:58.832Z,95.46
2022-11-03T06:35:30.351Z,95.08
2022-11-03T06:36:15.733Z,95.09
2022-11-03T06:36:47.428Z,95.47
2022-11-03T06:37:26.978Z,95.29
2022-11-03T06:37:58.918Z,95.37
2022-11-03T06:38:31.838Z,95.31
2022-11-03T06:39:23.936Z,95.60
2022-11-03T06:40:00.368Z,95.88
2022-11-03T06:40:37.093Z,95.72
2022-11-03T06:41:15.832Z,96.03
2022-11-03T06:41:47.400Z,95.95
2022-11-03T06:42:21.655Z,96.19
2022-11-03T06:42:54.362Z,95.81
2022-11-03T06:43:28.900Z,96.35
2022-11-03T06:44:03.077Z,96.00
2022-11-03T06:44:39.212Z,96.35
2022-11-03T06:45:14.499Z,95.86
2022-11-03T06:45:54.678Z,96.08
2022-11-03T06:46:26.772Z,96.12
2022-11-03T06:47:03.196Z,96.44
2022-11-03T06:47:34.707Z,96.39
2022-11-03T06:48:08.344Z,96.46
2022-11-03T06:48:40.040Z,96.02
2022-11-03T06:49:28.809Z,95.98
2022-11-03T06:50:32.943Z,95.76
2022-11-03T06:51:15.621Z,96.73
2022-11-03T06:51:47.155Z,96.49
2022-11-03T06:52:24.091Z,96.56
2022-11-03T06:52:56.944Z,96.30
2022-11-03T06:53:32.076Z,96.11
2022-11-03T06:54:06.042Z,96.27
2022-11-03T06:54:38.080Z,96.13
2022-11-03T06:55:16.695Z,96.53
2022-11-03T06:55:49.055Z,96.28
2022-11-03T06:56:22.812Z,96.41
2022-11-03T06:56:54.599Z,96.40
2022-11-03T06:57:26.539Z,96.95
2022-11-03T06:58:07.813Z,97.00
2022-11-03T06:58:40.695Z,96.86
2022-11-03T06:59:14.388Z,97.06
2022-11-03T06:59:46.029Z,97.11
2022-11-03T07:00:41.140Z,96.96
2022-11-03T07:01:35.678Z,96.58
2022-11-03T07:02:25.882Z,96.59
2022-11-03T07:03:18.747Z,96.35
2022-11-03T07:03:58.055Z,96.59
2022-11-03T07:04:29.607Z,96.51
2022-11-03T07:05:01.190Z,96.27
2022-11-03T07:05:33.317Z,96.22
2022-11-03T07:06:10.534Z,96.46
2022-11-03T07:06:43.415Z,96.49
2022-11-03T07:07:14.928Z,96.73
2022-11-03T07:07:47.056Z,96.49
2022-11-03T07:08:42.479Z,96.85
2022-11-03T07:09:19.707Z,96.67
2022-11-03T07:09:51.219Z,96.47
2022-11-03T07:10:25.347Z,96.64
2022-11-03T07:11:20.734Z,96.88
2022-11-03T07:11:58.322Z,96.61
2022-11-03T07:12:29.829Z,96.66
2022-11-03T07:13:07.430Z,96.77
2022-11-03T07:13:39.062Z,96.32
2022-11-03T07:14:11.924Z,96.69
2022-11-03T07:14:44.132Z,96.10
2022-11-03T07:15:24.041Z,96.18
2022-11-03T07:15:55.787Z,96.29
2022-11-03T07:16:41.383Z,96.37
2022-11-03T07:17:19.921Z,96.57
2022-11-03T07:17:51.621Z,96.17
2022-11-03T07:18:28.474Z,96.74
2022-11-03T07:19:01.827Z,96.07
2022-11-03T07:19:39.607Z,96.21
2022-11-03T07:20:16.334Z,96.39
2022-11-03T07:20:48.418Z,96.16
2022-11-03T07:21:29.294Z,95.90
2022-11-03T07:22:01.177Z,96.13
2022-11-03T07:22:33.932Z,96.09
2022-11-03T07:23:05.714Z,95.92
2022-11-03T07:23:37.278Z,95.80
2022-11-03T07:24:24.811Z,95.76
2022-11-03T07:24:59.958Z,95.42
2022-11-03T07:25:31.754Z,95.42
2022-11-03T07:26:03.738Z,95.58
2022-11-03T07:26:35.354Z,95.65
2022-11-03T07:27:26.890Z,95.56
2022-11-03T07:28:01.320Z,95.23
2022-11-03T07:28:35.713Z,95.48
2022-11-03T07:29:16.841Z,95.34
2022-11-03T07:29:50.027Z,95.25
2022-11-03T07:30:24.584Z,95.69
2022-11-03T07:30:56.295Z,94.93
2022-11-03T07:31:27.985Z,94.95
2022-11-03T07:32:00.427Z,94.96
2022-11-03T07:32:33.740Z,95.00
2022-11-03T07:33:18.833Z,95.02
2022-11-03T07:33:51.050Z,95.30
2022-11-03T07:34:24.215Z,94.92
2022-11-03T07:35:05.302Z,94.86
2022-11-03T07:36:08.595Z,94.89
2022-11-03T07:36:31.907Z,94.87
2022-11-03T07:37:03.527Z,94.69
2022-11-03T07:37:35.463Z,94.32
2022-11-03T07:38:14.030Z,94.70
2022-11-03T07:38:47.860Z,94.40
2022-11-03T07:39:21.345Z,94.43
2022-11-03T07:39:53.157Z,94.12
2022-11-03T07:40:27.639Z,94.80
2022-11-03T07:41:00.052Z,94.47
2022-11-03T07:41:34.521Z,94.37
2022-11-03T07:42:14.657Z,94.16
2022-11-03T07:42:46.332Z,94.24
2022-11-03T07:43:22.832Z,94.10
2022-11-03T07:43:59.176Z,93.98
2022-11-03T07:44:30.666Z,93.90
2022-11-03T07:45:02.218Z,94.33
2022-11-03T07:45:52.579Z,94.09
2022-11-03T07:46:25.339Z,94.10
2022-11-03T07:46:57.901Z,93.49
2022-11-03T07:47:29.390Z,93.52